sensor_id;sensor_type;location;lat;lon;timestamp;P1;durP1;ratioP1;P2;durP2;ratioP2
30327;SDS011;17133;52.418;13.398;2022-10-13T00:01:53;13.38;;;7.35;;
30327;SDS011;17133;52.418;13.398;2022-10-13T00:04:18;13.07;;;7.55;;
30327;SDS011;17133;52.418;13.398;2022-10-13T00:06:44;17.88;;;7.53;;
30327;SDS011;17133;52.418;13.398;2022-10-13T00:09:09;11.43;;;6.95;;
30327;SDS011;17133;52.418;13.398;2022-10-13T00:11:35;9.90;;;6.60;;
30327;SDS011;17133;52.418;13.398;2022-10-13T00:14:01;9.43;;;6.47;;
30327;SDS011;17133;52.418;13.398;2022-10-13T00:16:28;10.27;;;6.63;;
30327;SDS011;17133;52.418;13.398;2022-10-13T00:18:55;10.52;;;6.97;;
30327;SDS011;17133;52.418;13.398;2022-10-13T00:21:22;9.50;;;6.15;;
30327;SDS011;17133;52.418;13.398;2022-10-13T00:23:49;14.95;;;7.80;;
30327;SDS011;17133;52.418;13.398;2022-10-13T00:26:16;14.32;;;7.97;;
30327;SDS011;17133;52.418;13.398;2022-10-13T00:28:42;12.43;;;6.85;;
30327;SDS011;17133;52.418;13.398;2022-10-13T00:31:13;13.65;;;7.60;;
30327;SDS011;17133;52.418;13.398;2022-10-13T00:34:08;12.45;;;6.78;;
30327;SDS011;17133;52.418;13.398;2022-10-13T00:36:34;12.15;;;6.95;;
30327;SDS011;17133;52.418;13.398;2022-10-13T00:38:59;14.40;;;8.68;;
30327;SDS011;17133;52.418;13.398;2022-10-13T00:41:25;11.30;;;7.05;;
30327;SDS011;17133;52.418;13.398;2022-10-13T00:46:26;14.35;;;7.32;;
30327;SDS011;17133;52.418;13.398;2022-10-13T00:48:53;14.93;;;7.20;;
30327;SDS011;17133;52.418;13.398;2022-10-13T00:51:21;13.73;;;7.55;;
30327;SDS011;17133;52.418;13.398;2022-10-13T00:56:16;10.48;;;7.10;;
30327;SDS011;17133;52.418;13.398;2022-10-13T00:58:45;9.88;;;6.82;;
30327;SDS011;17133;52.418;13.398;2022-10-13T01:01:12;11.93;;;7.68;;
30327;SDS011;17133;52.418;13.398;2022-10-13T01:03:38;12.55;;;7.45;;
30327;SDS011;17133;52.418;13.398;2022-10-13T01:06:04;8.77;;;6.15;;
30327;SDS011;17133;52.418;13.398;2022-10-13T01:08:30;13.10;;;7.05;;
30327;SDS011;17133;52.418;13.398;2022-10-13T01:11:11;11.30;;;7.43;;
30327;SDS011;17133;52.418;13.398;2022-10-13T01:14:39;12.73;;;7.90;;
30327;SDS011;17133;52.418;13.398;2022-10-13T01:16:54;12.48;;;6.72;;
30327;SDS011;17133;52.418;13.398;2022-10-13T01:25:12;11.70;;;6.93;;
30327;SDS011;17133;52.418;13.398;2022-10-13T01:30:31;11.93;;;7.25;;
30327;SDS011;17133;52.418;13.398;2022-10-13T01:40:59;10.50;;;7.45;;
30327;SDS011;17133;52.418;13.398;2022-10-13T01:43:36;10.23;;;6.75;;
30327;SDS011;17133;52.418;13.398;2022-10-13T01:46:13;11.98;;;6.93;;
30327;SDS011;17133;52.418;13.398;2022-10-13T01:48:58;14.60;;;6.53;;
30327;SDS011;17133;52.418;13.398;2022-10-13T01:51:25;9.25;;;6.10;;
30327;SDS011;17133;52.418;13.398;2022-10-13T01:53:53;10.75;;;6.57;;
30327;SDS011;17133;52.418;13.398;2022-10-13T01:56:18;15.68;;;8.60;;
30327;SDS011;17133;52.418;13.398;2022-10-13T01:58:44;10.68;;;7.03;;
30327;SDS011;17133;52.418;13.398;2022-10-13T02:06:43;12.32;;;6.90;;
30327;SDS011;17133;52.418;13.398;2022-10-13T02:11:55;11.48;;;6.90;;
30327;SDS011;17133;52.418;13.398;2022-10-13T02:14:25;13.82;;;7.03;;
30327;SDS011;17133;52.418;13.398;2022-10-13T02:16:53;11.68;;;7.63;;
30327;SDS011;17133;52.418;13.398;2022-10-13T02:19:23;10.50;;;6.55;;
30327;SDS011;17133;52.418;13.398;2022-10-13T02:21:49;11.10;;;7.53;;
30327;SDS011;17133;52.418;13.398;2022-10-13T02:24:16;10.77;;;7.07;;
30327;SDS011;17133;52.418;13.398;2022-10-13T02:26:42;14.82;;;8.57;;
30327;SDS011;17133;52.418;13.398;2022-10-13T02:29:10;11.88;;;7.55;;
30327;SDS011;17133;52.418;13.398;2022-10-13T02:31:37;11.75;;;8.38;;
30327;SDS011;17133;52.418;13.398;2022-10-13T02:34:04;12.02;;;7.22;;
30327;SDS011;17133;52.418;13.398;2022-10-13T02:36:29;11.98;;;7.15;;
30327;SDS011;17133;52.418;13.398;2022-10-13T02:38:55;13.20;;;7.82;;
30327;SDS011;17133;52.418;13.398;2022-10-13T02:41:21;16.90;;;9.10;;
30327;SDS011;17133;52.418;13.398;2022-10-13T02:43:46;17.52;;;9.30;;
30327;SDS011;17133;52.418;13.398;2022-10-13T02:46:12;12.30;;;8.00;;
30327;SDS011;17133;52.418;13.398;2022-10-13T02:48:37;13.93;;;7.60;;
30327;SDS011;17133;52.418;13.398;2022-10-13T02:51:04;12.00;;;7.35;;
30327;SDS011;17133;52.418;13.398;2022-10-13T02:53:30;13.98;;;8.75;;
30327;SDS011;17133;52.418;13.398;2022-10-13T02:55:56;13.85;;;7.90;;
30327;SDS011;17133;52.418;13.398;2022-10-13T02:58:21;11.85;;;7.53;;
30327;SDS011;17133;52.418;13.398;2022-10-13T03:00:47;13.75;;;7.72;;
30327;SDS011;17133;52.418;13.398;2022-10-13T03:03:12;12.15;;;7.55;;
30327;SDS011;17133;52.418;13.398;2022-10-13T03:05:38;14.30;;;8.80;;
30327;SDS011;17133;52.418;13.398;2022-10-13T03:08:03;10.73;;;8.40;;
30327;SDS011;17133;52.418;13.398;2022-10-13T03:10:29;16.77;;;8.00;;
30327;SDS011;17133;52.418;13.398;2022-10-13T03:12:56;10.77;;;7.57;;
30327;SDS011;17133;52.418;13.398;2022-10-13T03:15:22;13.00;;;7.75;;
30327;SDS011;17133;52.418;13.398;2022-10-13T03:17:49;10.98;;;7.22;;
30327;SDS011;17133;52.418;13.398;2022-10-13T03:20:15;10.77;;;7.13;;
30327;SDS011;17133;52.418;13.398;2022-10-13T03:22:41;12.05;;;7.13;;
30327;SDS011;17133;52.418;13.398;2022-10-13T03:25:07;11.80;;;7.55;;
30327;SDS011;17133;52.418;13.398;2022-10-13T03:27:33;15.55;;;7.95;;
30327;SDS011;17133;52.418;13.398;2022-10-13T03:29:59;13.82;;;7.57;;
30327;SDS011;17133;52.418;13.398;2022-10-13T03:32:25;12.45;;;8.15;;
30327;SDS011;17133;52.418;13.398;2022-10-13T03:34:50;13.63;;;7.63;;
30327;SDS011;17133;52.418;13.398;2022-10-13T03:37:16;14.13;;;7.75;;
30327;SDS011;17133;52.418;13.398;2022-10-13T03:39:42;13.70;;;7.78;;
30327;SDS011;17133;52.418;13.398;2022-10-13T03:42:08;14.50;;;8.20;;
30327;SDS011;17133;52.418;13.398;2022-10-13T03:44:34;12.23;;;7.15;;
30327;SDS011;17133;52.418;13.398;2022-10-13T03:46:59;12.52;;;8.40;;
30327;SDS011;17133;52.418;13.398;2022-10-13T03:49:25;12.75;;;8.02;;
30327;SDS011;17133;52.418;13.398;2022-10-13T03:51:50;12.93;;;8.05;;
30327;SDS011;17133;52.418;13.398;2022-10-13T03:54:16;11.30;;;8.02;;
30327;SDS011;17133;52.418;13.398;2022-10-13T03:56:42;14.70;;;8.32;;
30327;SDS011;17133;52.418;13.398;2022-10-13T03:59:09;11.63;;;7.82;;
30327;SDS011;17133;52.418;13.398;2022-10-13T04:01:37;12.07;;;7.37;;
30327;SDS011;17133;52.418;13.398;2022-10-13T04:04:03;12.07;;;7.90;;
30327;SDS011;17133;52.418;13.398;2022-10-13T04:06:31;12.88;;;8.77;;
30327;SDS011;17133;52.418;13.398;2022-10-13T04:08:56;9.63;;;7.57;;
30327;SDS011;17133;52.418;13.398;2022-10-13T04:11:23;13.68;;;8.18;;
30327;SDS011;17133;52.418;13.398;2022-10-13T04:13:48;22.15;;;8.55;;
30327;SDS011;17133;52.418;13.398;2022-10-13T04:16:15;14.60;;;9.02;;
30327;SDS011;17133;52.418;13.398;2022-10-13T04:19:22;13.73;;;9.18;;
30327;SDS011;17133;52.418;13.398;2022-10-13T04:21:41;20.13;;;10.68;;
30327;SDS011;17133;52.418;13.398;2022-10-13T04:24:08;16.17;;;9.30;;
30327;SDS011;17133;52.418;13.398;2022-10-13T04:26:36;16.08;;;10.23;;
30327;SDS011;17133;52.418;13.398;2022-10-13T04:29:02;15.70;;;9.48;;
30327;SDS011;17133;52.418;13.398;2022-10-13T04:31:29;15.10;;;9.27;;
30327;SDS011;17133;52.418;13.398;2022-10-13T04:33:56;18.33;;;10.10;;
30327;SDS011;17133;52.418;13.398;2022-10-13T04:36:23;15.40;;;10.50;;
30327;SDS011;17133;52.418;13.398;2022-10-13T04:38:49;14.57;;;9.48;;
30327;SDS011;17133;52.418;13.398;2022-10-13T04:41:15;19.65;;;9.98;;
30327;SDS011;17133;52.418;13.398;2022-10-13T04:43:42;16.63;;;10.55;;
30327;SDS011;17133;52.418;13.398;2022-10-13T04:46:09;18.27;;;10.32;;
30327;SDS011;17133;52.418;13.398;2022-10-13T04:48:38;14.82;;;9.20;;
30327;SDS011;17133;52.418;13.398;2022-10-13T04:51:08;15.77;;;10.00;;
30327;SDS011;17133;52.418;13.398;2022-10-13T04:53:36;17.83;;;10.80;;
30327;SDS011;17133;52.418;13.398;2022-10-13T04:56:02;18.05;;;10.60;;
30327;SDS011;17133;52.418;13.398;2022-10-13T04:58:30;13.77;;;9.68;;
30327;SDS011;17133;52.418;13.398;2022-10-13T05:00:56;17.08;;;10.57;;
30327;SDS011;17133;52.418;13.398;2022-10-13T05:03:22;20.42;;;10.93;;
30327;SDS011;17133;52.418;13.398;2022-10-13T05:05:48;16.85;;;10.57;;
30327;SDS011;17133;52.418;13.398;2022-10-13T05:08:14;14.43;;;10.85;;
30327;SDS011;17133;52.418;13.398;2022-10-13T05:10:40;17.38;;;10.18;;
30327;SDS011;17133;52.418;13.398;2022-10-13T05:13:06;13.00;;;9.32;;
30327;SDS011;17133;52.418;13.398;2022-10-13T05:15:31;16.90;;;10.00;;
30327;SDS011;17133;52.418;13.398;2022-10-13T05:17:58;14.82;;;9.90;;
30327;SDS011;17133;52.418;13.398;2022-10-13T05:20:24;19.63;;;10.80;;
30327;SDS011;17133;52.418;13.398;2022-10-13T05:22:50;17.38;;;10.18;;
30327;SDS011;17133;52.418;13.398;2022-10-13T05:25:16;18.30;;;11.63;;
30327;SDS011;17133;52.418;13.398;2022-10-13T05:27:41;14.70;;;10.57;;
30327;SDS011;17133;52.418;13.398;2022-10-13T05:30:09;12.50;;;9.65;;
30327;SDS011;17133;52.418;13.398;2022-10-13T05:32:35;17.20;;;10.48;;
30327;SDS011;17133;52.418;13.398;2022-10-13T05:35:00;20.83;;;11.23;;
30327;SDS011;17133;52.418;13.398;2022-10-13T05:37:26;20.52;;;11.40;;
30327;SDS011;17133;52.418;13.398;2022-10-13T05:39:52;19.60;;;11.68;;
30327;SDS011;17133;52.418;13.398;2022-10-13T05:42:17;16.80;;;10.70;;
30327;SDS011;17133;52.418;13.398;2022-10-13T05:44:43;20.00;;;11.57;;
30327;SDS011;17133;52.418;13.398;2022-10-13T05:47:08;22.23;;;12.07;;
30327;SDS011;17133;52.418;13.398;2022-10-13T05:49:34;13.85;;;10.95;;
30327;SDS011;17133;52.418;13.398;2022-10-13T05:52:07;16.75;;;11.90;;
30327;SDS011;17133;52.418;13.398;2022-10-13T05:57:04;18.48;;;12.10;;
30327;SDS011;17133;52.418;13.398;2022-10-13T05:59:36;20.00;;;12.65;;
30327;SDS011;17133;52.418;13.398;2022-10-13T06:02:07;20.52;;;12.48;;
30327;SDS011;17133;52.418;13.398;2022-10-13T06:04:39;18.60;;;12.35;;
30327;SDS011;17133;52.418;13.398;2022-10-13T06:07:08;21.50;;;12.15;;
30327;SDS011;17133;52.418;13.398;2022-10-13T06:09:34;21.60;;;12.23;;
30327;SDS011;17133;52.418;13.398;2022-10-13T06:12:05;21.67;;;12.23;;
30327;SDS011;17133;52.418;13.398;2022-10-13T06:14:31;23.63;;;12.90;;
30327;SDS011;17133;52.418;13.398;2022-10-13T06:16:57;24.27;;;12.55;;
30327;SDS011;17133;52.418;13.398;2022-10-13T06:19:23;18.73;;;12.27;;
30327;SDS011;17133;52.418;13.398;2022-10-13T06:21:48;20.20;;;12.60;;
30327;SDS011;17133;52.418;13.398;2022-10-13T06:24:14;19.95;;;12.32;;
30327;SDS011;17133;52.418;13.398;2022-10-13T06:26:40;19.92;;;11.90;;
30327;SDS011;17133;52.418;13.398;2022-10-13T06:29:05;21.70;;;12.88;;
30327;SDS011;17133;52.418;13.398;2022-10-13T06:31:31;18.98;;;12.02;;
30327;SDS011;17133;52.418;13.398;2022-10-13T06:33:57;18.30;;;12.18;;
30327;SDS011;17133;52.418;13.398;2022-10-13T06:36:23;20.83;;;12.45;;
30327;SDS011;17133;52.418;13.398;2022-10-13T06:38:49;24.02;;;13.45;;
30327;SDS011;17133;52.418;13.398;2022-10-13T06:41:14;23.65;;;14.40;;
30327;SDS011;17133;52.418;13.398;2022-10-13T06:43:40;17.58;;;12.30;;
30327;SDS011;17133;52.418;13.398;2022-10-13T06:46:06;18.48;;;12.35;;
30327;SDS011;17133;52.418;13.398;2022-10-13T06:48:32;19.10;;;13.10;;
30327;SDS011;17133;52.418;13.398;2022-10-13T06:51:01;20.38;;;13.02;;
30327;SDS011;17133;52.418;13.398;2022-10-13T06:53:32;18.85;;;12.13;;
30327;SDS011;17133;52.418;13.398;2022-10-13T06:55:58;23.70;;;14.40;;
30327;SDS011;17133;52.418;13.398;2022-10-13T06:58:25;21.98;;;13.55;;
30327;SDS011;17133;52.418;13.398;2022-10-13T07:00:51;18.45;;;12.60;;
30327;SDS011;17133;52.418;13.398;2022-10-13T07:03:17;20.55;;;13.57;;
30327;SDS011;17133;52.418;13.398;2022-10-13T07:05:43;24.90;;;15.13;;
30327;SDS011;17133;52.418;13.398;2022-10-13T07:08:09;22.33;;;14.18;;
30327;SDS011;17133;52.418;13.398;2022-10-13T07:10:38;20.77;;;13.98;;
30327;SDS011;17133;52.418;13.398;2022-10-13T07:13:04;19.67;;;12.82;;
30327;SDS011;17133;52.418;13.398;2022-10-13T07:15:30;20.92;;;13.65;;
30327;SDS011;17133;52.418;13.398;2022-10-13T07:17:56;26.02;;;14.23;;
30327;SDS011;17133;52.418;13.398;2022-10-13T07:20:22;21.33;;;13.80;;
30327;SDS011;17133;52.418;13.398;2022-10-13T07:22:48;24.15;;;14.32;;
30327;SDS011;17133;52.418;13.398;2022-10-13T07:25:16;23.92;;;15.07;;
30327;SDS011;17133;52.418;13.398;2022-10-13T07:27:42;26.98;;;17.17;;
30327;SDS011;17133;52.418;13.398;2022-10-13T07:30:08;26.35;;;15.38;;
30327;SDS011;17133;52.418;13.398;2022-10-13T07:32:34;26.35;;;15.30;;
30327;SDS011;17133;52.418;13.398;2022-10-13T07:35:00;24.25;;;15.38;;
30327;SDS011;17133;52.418;13.398;2022-10-13T07:37:27;27.27;;;15.80;;
30327;SDS011;17133;52.418;13.398;2022-10-13T07:39:53;25.80;;;16.15;;
30327;SDS011;17133;52.418;13.398;2022-10-13T07:42:18;21.80;;;14.13;;
30327;SDS011;17133;52.418;13.398;2022-10-13T07:44:44;24.13;;;14.85;;
30327;SDS011;17133;52.418;13.398;2022-10-13T07:47:09;20.48;;;14.15;;
30327;SDS011;17133;52.418;13.398;2022-10-13T07:49:35;23.50;;;15.63;;
30327;SDS011;17133;52.418;13.398;2022-10-13T07:52:01;26.08;;;14.98;;
30327;SDS011;17133;52.418;13.398;2022-10-13T07:54:27;25.10;;;16.08;;
30327;SDS011;17133;52.418;13.398;2022-10-13T07:56:53;22.77;;;15.63;;
30327;SDS011;17133;52.418;13.398;2022-10-13T07:59:19;21.50;;;15.90;;
30327;SDS011;17133;52.418;13.398;2022-10-13T08:01:45;23.15;;;15.88;;
30327;SDS011;17133;52.418;13.398;2022-10-13T08:04:10;29.75;;;17.38;;
30327;SDS011;17133;52.418;13.398;2022-10-13T08:06:36;23.17;;;15.60;;
30327;SDS011;17133;52.418;13.398;2022-10-13T08:09:02;31.70;;;18.20;;
30327;SDS011;17133;52.418;13.398;2022-10-13T08:11:28;26.45;;;17.58;;
30327;SDS011;17133;52.418;13.398;2022-10-13T08:13:54;25.63;;;17.20;;
30327;SDS011;17133;52.418;13.398;2022-10-13T08:16:24;28.92;;;18.27;;
30327;SDS011;17133;52.418;13.398;2022-10-13T08:18:53;29.13;;;19.50;;
30327;SDS011;17133;52.418;13.398;2022-10-13T08:21:21;32.05;;;19.00;;
30327;SDS011;17133;52.418;13.398;2022-10-13T08:23:47;35.05;;;19.05;;
30327;SDS011;17133;52.418;13.398;2022-10-13T08:26:17;25.50;;;18.15;;
30327;SDS011;17133;52.418;13.398;2022-10-13T08:28:45;31.33;;;18.98;;
30327;SDS011;17133;52.418;13.398;2022-10-13T08:31:11;27.13;;;18.65;;
30327;SDS011;17133;52.418;13.398;2022-10-13T08:33:36;24.50;;;17.63;;
30327;SDS011;17133;52.418;13.398;2022-10-13T08:36:03;25.55;;;18.60;;
30327;SDS011;17133;52.418;13.398;2022-10-13T08:38:28;26.85;;;17.67;;
30327;SDS011;17133;52.418;13.398;2022-10-13T08:40:54;28.90;;;18.92;;
30327;SDS011;17133;52.418;13.398;2022-10-13T08:43:21;25.70;;;18.25;;
30327;SDS011;17133;52.418;13.398;2022-10-13T08:45:48;26.40;;;18.10;;
30327;SDS011;17133;52.418;13.398;2022-10-13T08:48:16;28.20;;;17.67;;
30327;SDS011;17133;52.418;13.398;2022-10-13T08:50:44;30.43;;;17.90;;
30327;SDS011;17133;52.418;13.398;2022-10-13T08:58:34;28.00;;;18.63;;
30327;SDS011;17133;52.418;13.398;2022-10-13T09:01:20;27.40;;;17.98;;
30327;SDS011;17133;52.418;13.398;2022-10-13T09:03:54;25.40;;;17.65;;
30327;SDS011;17133;52.418;13.398;2022-10-13T09:06:31;24.58;;;16.92;;
30327;SDS011;17133;52.418;13.398;2022-10-13T09:09:01;25.77;;;17.40;;
30327;SDS011;17133;52.418;13.398;2022-10-13T09:11:48;26.40;;;17.33;;
30327;SDS011;17133;52.418;13.398;2022-10-13T09:14:31;19.77;;;14.30;;
30327;SDS011;17133;52.418;13.398;2022-10-13T09:17:12;23.70;;;16.23;;
30327;SDS011;17133;52.418;13.398;2022-10-13T09:20:13;18.50;;;14.00;;
30327;SDS011;17133;52.418;13.398;2022-10-13T09:23:02;27.13;;;17.45;;
30327;SDS011;17133;52.418;13.398;2022-10-13T09:25:40;22.77;;;15.27;;
30327;SDS011;17133;52.418;13.398;2022-10-13T09:28:13;20.75;;;15.90;;
30327;SDS011;17133;52.418;13.398;2022-10-13T09:30:41;25.77;;;18.65;;
30327;SDS011;17133;52.418;13.398;2022-10-13T09:35:41;24.90;;;18.73;;
30327;SDS011;17133;52.418;13.398;2022-10-13T09:38:12;25.48;;;17.65;;
30327;SDS011;17133;52.418;13.398;2022-10-13T09:40:39;27.92;;;18.17;;
30327;SDS011;17133;52.418;13.398;2022-10-13T09:43:14;24.77;;;17.30;;
30327;SDS011;17133;52.418;13.398;2022-10-13T09:45:48;22.70;;;17.08;;
30327;SDS011;17133;52.418;13.398;2022-10-13T09:48:19;23.98;;;16.23;;
30327;SDS011;17133;52.418;13.398;2022-10-13T09:50:49;24.23;;;17.08;;
30327;SDS011;17133;52.418;13.398;2022-10-13T09:53:18;19.25;;;14.48;;
30327;SDS011;17133;52.418;13.398;2022-10-13T09:55:46;26.75;;;17.85;;
30327;SDS011;17133;52.418;13.398;2022-10-13T09:58:18;21.52;;;15.30;;
30327;SDS011;17133;52.418;13.398;2022-10-13T10:00:50;21.45;;;15.10;;
30327;SDS011;17133;52.418;13.398;2022-10-13T10:03:33;25.88;;;16.33;;
30327;SDS011;17133;52.418;13.398;2022-10-13T10:06:03;32.92;;;18.25;;
30327;SDS011;17133;52.418;13.398;2022-10-13T10:11:24;29.67;;;18.02;;
30327;SDS011;17133;52.418;13.398;2022-10-13T10:16:38;23.95;;;17.90;;
30327;SDS011;17133;52.418;13.398;2022-10-13T10:19:15;22.10;;;16.38;;
30327;SDS011;17133;52.418;13.398;2022-10-13T10:24:32;25.23;;;16.92;;
30327;SDS011;17133;52.418;13.398;2022-10-13T10:27:35;21.15;;;15.55;;
30327;SDS011;17133;52.418;13.398;2022-10-13T10:32:59;23.70;;;15.73;;
30327;SDS011;17133;52.418;13.398;2022-10-13T10:35:43;26.02;;;15.38;;
30327;SDS011;17133;52.418;13.398;2022-10-13T10:38:44;21.35;;;15.57;;
30327;SDS011;17133;52.418;13.398;2022-10-13T10:41:15;22.10;;;15.77;;
30327;SDS011;17133;52.418;13.398;2022-10-13T10:43:53;27.15;;;16.88;;
30327;SDS011;17133;52.418;13.398;2022-10-13T10:46:27;24.50;;;15.60;;
30327;SDS011;17133;52.418;13.398;2022-10-13T10:48:58;23.85;;;16.05;;
30327;SDS011;17133;52.418;13.398;2022-10-13T10:51:31;22.83;;;16.25;;
30327;SDS011;17133;52.418;13.398;2022-10-13T10:54:08;23.92;;;15.80;;
30327;SDS011;17133;52.418;13.398;2022-10-13T10:57:02;23.63;;;13.77;;
30327;SDS011;17133;52.418;13.398;2022-10-13T11:04:42;19.70;;;14.70;;
30327;SDS011;17133;52.418;13.398;2022-10-13T11:07:09;20.30;;;14.02;;
30327;SDS011;17133;52.418;13.398;2022-10-13T11:12:44;23.30;;;14.98;;
30327;SDS011;17133;52.418;13.398;2022-10-13T11:19:51;21.67;;;15.30;;
30327;SDS011;17133;52.418;13.398;2022-10-13T11:22:19;23.05;;;13.80;;
30327;SDS011;17133;52.418;13.398;2022-10-13T11:24:49;21.38;;;14.63;;
30327;SDS011;17133;52.418;13.398;2022-10-13T11:42:47;17.35;;;13.65;;
30327;SDS011;17133;52.418;13.398;2022-10-13T11:55:16;22.10;;;12.75;;
30327;SDS011;17133;52.418;13.398;2022-10-13T11:57:43;22.58;;;12.55;;
30327;SDS011;17133;52.418;13.398;2022-10-13T12:00:12;14.75;;;10.73;;
30327;SDS011;17133;52.418;13.398;2022-10-13T12:02:46;18.75;;;11.32;;
30327;SDS011;17133;52.418;13.398;2022-10-13T12:05:22;17.15;;;11.38;;
30327;SDS011;17133;52.418;13.398;2022-10-13T12:07:49;18.40;;;10.35;;
30327;SDS011;17133;52.418;13.398;2022-10-13T12:10:36;16.25;;;9.93;;
30327;SDS011;17133;52.418;13.398;2022-10-13T12:13:02;16.48;;;10.43;;
30327;SDS011;17133;52.418;13.398;2022-10-13T12:15:36;15.50;;;9.77;;
30327;SDS011;17133;52.418;13.398;2022-10-13T12:18:17;16.80;;;10.50;;
30327;SDS011;17133;52.418;13.398;2022-10-13T12:20:44;18.13;;;11.13;;
30327;SDS011;17133;52.418;13.398;2022-10-13T12:23:16;17.00;;;11.50;;
30327;SDS011;17133;52.418;13.398;2022-10-13T12:25:42;16.25;;;9.57;;
30327;SDS011;17133;52.418;13.398;2022-10-13T12:28:15;18.65;;;10.55;;
30327;SDS011;17133;52.418;13.398;2022-10-13T12:30:44;16.55;;;10.75;;
30327;SDS011;17133;52.418;13.398;2022-10-13T12:33:33;13.05;;;9.73;;
30327;SDS011;17133;52.418;13.398;2022-10-13T12:36:13;18.08;;;11.25;;
30327;SDS011;17133;52.418;13.398;2022-10-13T12:38:40;16.40;;;10.85;;
30327;SDS011;17133;52.418;13.398;2022-10-13T12:41:07;18.50;;;10.63;;
30327;SDS011;17133;52.418;13.398;2022-10-13T12:43:34;16.42;;;10.88;;
30327;SDS011;17133;52.418;13.398;2022-10-13T12:46:00;16.70;;;11.45;;
30327;SDS011;17133;52.418;13.398;2022-10-13T12:48:27;17.45;;;12.85;;
30327;SDS011;17133;52.418;13.398;2022-10-13T12:50:53;20.25;;;12.05;;
30327;SDS011;17133;52.418;13.398;2022-10-13T12:53:24;19.55;;;11.57;;
30327;SDS011;17133;52.418;13.398;2022-10-13T12:55:57;15.80;;;11.60;;
30327;SDS011;17133;52.418;13.398;2022-10-13T12:58:28;24.17;;;12.23;;
30327;SDS011;17133;52.418;13.398;2022-10-13T13:01:40;15.68;;;11.35;;
30327;SDS011;17133;52.418;13.398;2022-10-13T13:03:41;17.20;;;12.10;;
30327;SDS011;17133;52.418;13.398;2022-10-13T13:08:33;20.30;;;11.93;;
30327;SDS011;17133;52.418;13.398;2022-10-13T13:11:21;21.25;;;12.63;;
30327;SDS011;17133;52.418;13.398;2022-10-13T13:13:46;20.10;;;12.15;;
30327;SDS011;17133;52.418;13.398;2022-10-13T13:18:39;22.48;;;14.70;;
30327;SDS011;17133;52.418;13.398;2022-10-13T13:21:07;22.58;;;13.85;;
30327;SDS011;17133;52.418;13.398;2022-10-13T13:23:33;22.40;;;13.68;;
30327;SDS011;17133;52.418;13.398;2022-10-13T13:28:30;21.15;;;14.05;;
30327;SDS011;17133;52.418;13.398;2022-10-13T13:30:56;18.90;;;12.40;;
30327;SDS011;17133;52.418;13.398;2022-10-13T13:33:22;21.90;;;13.13;;
30327;SDS011;17133;52.418;13.398;2022-10-13T13:35:48;17.98;;;11.82;;
30327;SDS011;17133;52.418;13.398;2022-10-13T13:38:14;25.10;;;13.88;;
30327;SDS011;17133;52.418;13.398;2022-10-13T13:40:40;20.88;;;13.70;;
30327;SDS011;17133;52.418;13.398;2022-10-13T13:43:07;14.90;;;10.77;;
30327;SDS011;17133;52.418;13.398;2022-10-13T13:45:32;17.63;;;11.50;;
30327;SDS011;17133;52.418;13.398;2022-10-13T13:47:59;18.92;;;12.98;;
30327;SDS011;17133;52.418;13.398;2022-10-13T13:50:25;22.15;;;14.15;;
30327;SDS011;17133;52.418;13.398;2022-10-13T13:52:57;16.88;;;11.40;;
30327;SDS011;17133;52.418;13.398;2022-10-13T13:55:23;18.05;;;12.25;;
30327;SDS011;17133;52.418;13.398;2022-10-13T13:57:49;18.63;;;11.90;;
30327;SDS011;17133;52.418;13.398;2022-10-13T14:00:16;18.80;;;11.48;;
30327;SDS011;17133;52.418;13.398;2022-10-13T14:02:42;23.95;;;15.05;;
30327;SDS011;17133;52.418;13.398;2022-10-13T14:05:09;22.60;;;13.75;;
30327;SDS011;17133;52.418;13.398;2022-10-13T14:07:35;23.30;;;13.52;;
30327;SDS011;17133;52.418;13.398;2022-10-13T14:10:01;22.83;;;13.90;;
30327;SDS011;17133;52.418;13.398;2022-10-13T14:12:30;22.05;;;14.52;;
30327;SDS011;17133;52.418;13.398;2022-10-13T14:17:22;17.85;;;11.95;;
30327;SDS011;17133;52.418;13.398;2022-10-13T14:19:48;19.55;;;12.27;;
30327;SDS011;17133;52.418;13.398;2022-10-13T14:22:14;18.65;;;11.73;;
30327;SDS011;17133;52.418;13.398;2022-10-13T14:24:39;20.88;;;12.27;;
30327;SDS011;17133;52.418;13.398;2022-10-13T14:27:05;15.35;;;10.45;;
30327;SDS011;17133;52.418;13.398;2022-10-13T14:29:33;17.02;;;10.15;;
30327;SDS011;17133;52.418;13.398;2022-10-13T14:31:59;16.98;;;11.52;;
30327;SDS011;17133;52.418;13.398;2022-10-13T14:34:24;14.18;;;9.45;;
30327;SDS011;17133;52.418;13.398;2022-10-13T14:36:50;16.77;;;11.23;;
30327;SDS011;17133;52.418;13.398;2022-10-13T14:39:16;18.25;;;10.88;;
30327;SDS011;17133;52.418;13.398;2022-10-13T14:41:41;14.00;;;9.52;;
30327;SDS011;17133;52.418;13.398;2022-10-13T14:44:08;13.95;;;10.45;;
30327;SDS011;17133;52.418;13.398;2022-10-13T14:46:36;14.73;;;10.10;;
30327;SDS011;17133;52.418;13.398;2022-10-13T14:49:01;14.05;;;9.52;;
30327;SDS011;17133;52.418;13.398;2022-10-13T14:51:27;14.30;;;9.45;;
30327;SDS011;17133;52.418;13.398;2022-10-13T14:53:53;17.08;;;11.20;;
30327;SDS011;17133;52.418;13.398;2022-10-13T14:56:20;12.90;;;9.27;;
30327;SDS011;17133;52.418;13.398;2022-10-13T14:58:51;15.75;;;9.45;;
30327;SDS011;17133;52.418;13.398;2022-10-13T15:01:20;11.48;;;8.32;;
30327;SDS011;17133;52.418;13.398;2022-10-13T15:03:46;20.42;;;9.48;;
30327;SDS011;17133;52.418;13.398;2022-10-13T15:06:17;13.93;;;8.55;;
30327;SDS011;17133;52.418;13.398;2022-10-13T15:08:44;18.67;;;9.13;;
30327;SDS011;17133;52.418;13.398;2022-10-13T15:11:12;17.42;;;10.77;;
30327;SDS011;17133;52.418;13.398;2022-10-13T15:13:38;15.65;;;9.93;;
30327;SDS011;17133;52.418;13.398;2022-10-13T15:16:04;14.25;;;9.32;;
30327;SDS011;17133;52.418;13.398;2022-10-13T15:18:31;17.70;;;11.43;;
30327;SDS011;17133;52.418;13.398;2022-10-13T15:20:58;13.68;;;9.38;;
30327;SDS011;17133;52.418;13.398;2022-10-13T15:23:24;16.17;;;9.60;;
30327;SDS011;17133;52.418;13.398;2022-10-13T15:25:51;12.93;;;8.98;;
30327;SDS011;17133;52.418;13.398;2022-10-13T15:28:21;13.60;;;9.18;;
30327;SDS011;17133;52.418;13.398;2022-10-13T15:30:48;12.52;;;9.65;;
30327;SDS011;17133;52.418;13.398;2022-10-13T15:33:13;12.80;;;8.82;;
30327;SDS011;17133;52.418;13.398;2022-10-13T15:35:39;13.23;;;9.80;;
30327;SDS011;17133;52.418;13.398;2022-10-13T15:38:05;18.17;;;10.60;;
30327;SDS011;17133;52.418;13.398;2022-10-13T15:40:30;14.20;;;9.88;;
30327;SDS011;17133;52.418;13.398;2022-10-13T15:42:59;19.60;;;11.80;;
30327;SDS011;17133;52.418;13.398;2022-10-13T15:45:25;20.38;;;10.82;;
30327;SDS011;17133;52.418;13.398;2022-10-13T15:47:51;14.35;;;10.70;;
30327;SDS011;17133;52.418;13.398;2022-10-13T15:50:17;13.32;;;10.02;;
30327;SDS011;17133;52.418;13.398;2022-10-13T15:52:42;14.02;;;9.48;;
30327;SDS011;17133;52.418;13.398;2022-10-13T15:55:09;12.55;;;9.73;;
30327;SDS011;17133;52.418;13.398;2022-10-13T15:57:35;16.08;;;10.75;;
30327;SDS011;17133;52.418;13.398;2022-10-13T16:00:03;16.63;;;11.57;;
30327;SDS011;17133;52.418;13.398;2022-10-13T16:02:29;17.40;;;11.20;;